Horton, Kentucky
Current Conditions -  °F | °C
As of 1:15 PM on Monday 20 Oct 2014 (Local Time) from K2I0 Reporting Station
Clear Clear  
Wind Chill: 69°   Ceiling: Unl
Heat Index: 69°   Visibility: 10mi
Dew Point: 53°   Wind: 14mph
Humidity: 58%   Direction: 240°WSW
Pressure: 29.97"   Gusts: 18mph
Location:  37.3559°N, 86.8747°W
Report Text: K2I0 201815Z AUTO 24012G16KT 10SM CLR 20/12 A2997 RMK AO2 T02030119
Loading
Personal Weather Stations






























Interactive Weather Map New forecast layout! Learn more

10-Day Weather Forecast

Advertisements
Track Severe Weather on mobile